<?xml version="1.0" encoding="UTF-8"?>
<gpx
version="1.1"
creator="Créé par Mes parcours sur Android"
xmlns="http://www.topografix.com/GPX/1/1"
xmlns:topografix="http://www.topografix.com/GPX/Private/TopoGrafix/0/1"
xmlns:xsi="http://www.w3.org/2001/XMLSchema-instance"
xsi:schemaLocation="http://www.topografix.com/GPX/1/1 http://www.topografix.com/GPX/1/1/gpx.xsd http://www.topografix.com/GPX/Private/TopoGrafix/0/1 http://www.topografix.com/GPX/Private/TopoGrafix/0/1/topografix.xsd">
<metadata>
<name><![CDATA[DH Forêt Gif]]></name>
<desc><![CDATA[]]></desc>
</metadata>
<trk>
<name><![CDATA[DH Forêt Gif]]></name>
<desc><![CDATA[]]></desc>
<type><![CDATA[VTT]]></type>
<extensions><topografix:color>c0c0c0</topografix:color></extensions>
<trkseg>
<trkpt lat="48.692126" lon="2.138091">
<ele>-47</ele>
<time>2014-10-27T16:00:23.226Z</time>
</trkpt>
<trkpt lat="48.692144" lon="2.13796">
<ele>-19</ele>
<time>2014-10-27T16:00:50.700Z</time>
</trkpt>
<trkpt lat="48.69215" lon="2.137949">
<ele>-19</ele>
<time>2014-10-27T16:00:51.634Z</time>
</trkpt>
<trkpt lat="48.692219" lon="2.137984">
<ele>-5</ele>
<time>2014-10-27T16:00:54.685Z</time>
</trkpt>
<trkpt lat="48.692232" lon="2.138011">
<ele>-2</ele>
<time>2014-10-27T16:00:55.687Z</time>
</trkpt>
<trkpt lat="48.692283" lon="2.138036">
<ele>5</ele>
<time>2014-10-27T16:00:57.691Z</time>
</trkpt>
<trkpt lat="48.692323" lon="2.138032">
<ele>9</ele>
<time>2014-10-27T16:00:58.684Z</time>
</trkpt>
<trkpt lat="48.692403" lon="2.138027">
<ele>20</ele>
<time>2014-10-27T16:01:00.677Z</time>
</trkpt>
<trkpt lat="48.692434" lon="2.138022">
<ele>20</ele>
<time>2014-10-27T16:01:01.687Z</time>
</trkpt>
<trkpt lat="48.692489" lon="2.137984">
<ele>27</ele>
<time>2014-10-27T16:01:03.633Z</time>
</trkpt>
<trkpt lat="48.69252" lon="2.137968">
<ele>30</ele>
<time>2014-10-27T16:01:04.666Z</time>
</trkpt>
<trkpt lat="48.692593" lon="2.137927">
<ele>30</ele>
<time>2014-10-27T16:01:06.679Z</time>
</trkpt>
<trkpt lat="48.692629" lon="2.1379">
<ele>31</ele>
<time>2014-10-27T16:01:07.677Z</time>
</trkpt>
<trkpt lat="48.692708" lon="2.137865">
<ele>33</ele>
<time>2014-10-27T16:01:09.722Z</time>
</trkpt>
<trkpt lat="48.692743" lon="2.137863">
<ele>34</ele>
<time>2014-10-27T16:01:10.633Z</time>
</trkpt>
<trkpt lat="48.692822" lon="2.137875">
<ele>43</ele>
<time>2014-10-27T16:01:14.676Z</time>
</trkpt>
<trkpt lat="48.692837" lon="2.137885">
<ele>44</ele>
<time>2014-10-27T16:01:15.677Z</time>
</trkpt>
<trkpt lat="48.692889" lon="2.137878">
<ele>51</ele>
<time>2014-10-27T16:01:17.680Z</time>
</trkpt>
<trkpt lat="48.692922" lon="2.13784">
<ele>55</ele>
<time>2014-10-27T16:01:18.675Z</time>
</trkpt>
<trkpt lat="48.692959" lon="2.137743">
<ele>54</ele>
<time>2014-10-27T16:01:20.678Z</time>
</trkpt>
<trkpt lat="48.692981" lon="2.137691">
<ele>54</ele>
<time>2014-10-27T16:01:21.678Z</time>
</trkpt>
<trkpt lat="48.693031" lon="2.137619">
<ele>60</ele>
<time>2014-10-27T16:01:23.659Z</time>
</trkpt>
<trkpt lat="48.693055" lon="2.1376">
<ele>60</ele>
<time>2014-10-27T16:01:24.680Z</time>
</trkpt>
<trkpt lat="48.693129" lon="2.137669">
<ele>76</ele>
<time>2014-10-27T16:01:28.686Z</time>
</trkpt>
<trkpt lat="48.693142" lon="2.137687">
<ele>83</ele>
<time>2014-10-27T16:01:29.680Z</time>
</trkpt>
<trkpt lat="48.693203" lon="2.137614">
<ele>93</ele>
<time>2014-10-27T16:01:34.685Z</time>
</trkpt>
<trkpt lat="48.693215" lon="2.137562">
<ele>97</ele>
<time>2014-10-27T16:01:35.674Z</time>
</trkpt>
<trkpt lat="48.693237" lon="2.137473">
<ele>102</ele>
<time>2014-10-27T16:01:37.635Z</time>
</trkpt>
<trkpt lat="48.693252" lon="2.137434">
<ele>105</ele>
<time>2014-10-27T16:01:38.680Z</time>
</trkpt>
<trkpt lat="48.693296" lon="2.137359">
<ele>110</ele>
<time>2014-10-27T16:01:40.679Z</time>
</trkpt>
<trkpt lat="48.693316" lon="2.137319">
<ele>110</ele>
<time>2014-10-27T16:01:41.634Z</time>
</trkpt>
<trkpt lat="48.693349" lon="2.13724">
<ele>115</ele>
<time>2014-10-27T16:01:43.673Z</time>
</trkpt>
<trkpt lat="48.693365" lon="2.137198">
<ele>115</ele>
<time>2014-10-27T16:01:44.675Z</time>
</trkpt>
<trkpt lat="48.693419" lon="2.137114">
<ele>115</ele>
<time>2014-10-27T16:01:46.679Z</time>
</trkpt>
<trkpt lat="48.69346" lon="2.137095">
<ele>119</ele>
<time>2014-10-27T16:01:47.678Z</time>
</trkpt>
<trkpt lat="48.693515" lon="2.137079">
<ele>119</ele>
<time>2014-10-27T16:01:48.684Z</time>
</trkpt>
<trkpt lat="48.693567" lon="2.13706">
<ele>121</ele>
<time>2014-10-27T16:01:49.632Z</time>
</trkpt>
<trkpt lat="48.693617" lon="2.137033">
<ele>119</ele>
<time>2014-10-27T16:01:50.636Z</time>
</trkpt>
<trkpt lat="48.693664" lon="2.137">
<ele>123</ele>
<time>2014-10-27T16:01:51.676Z</time>
</trkpt>
<trkpt lat="48.693711" lon="2.136959">
<ele>122</ele>
<time>2014-10-27T16:01:52.674Z</time>
</trkpt>
<trkpt lat="48.693757" lon="2.136907">
<ele>123</ele>
<time>2014-10-27T16:01:53.649Z</time>
</trkpt>
<trkpt lat="48.693876" lon="2.136784">
<ele>121</ele>
<time>2014-10-27T16:01:54.671Z</time>
</trkpt>
<trkpt lat="48.693924" lon="2.136677">
<ele>124</ele>
<time>2014-10-27T16:02:05.868Z</time>
</trkpt>
</trkseg>
</trk>
</gpx>
